createdAt,value
2023-03-05T00:00:41.319Z,31.85
2023-03-05T00:02:44.320Z,29.33
2023-03-05T00:04:47.143Z,32.20
2023-03-05T00:06:49.881Z,31.52
2023-03-05T00:08:53.557Z,34.20
2023-03-05T00:10:57.692Z,34.17
2023-03-05T00:13:01.806Z,33.20
2023-03-05T00:15:05.370Z,32.20
2023-03-05T00:17:08.197Z,35.13
2023-03-05T00:19:13.626Z,28.80
2023-03-05T00:21:20.686Z,34.70
2023-03-05T00:23:23.458Z,34.38
2023-03-05T00:25:26.224Z,35.40
2023-03-05T00:27:28.976Z,37.17
2023-03-05T00:29:33.126Z,37.72
2023-03-05T00:31:37.493Z,37.53
2023-03-05T00:33:40.320Z,39.13
2023-03-05T00:35:44.627Z,39.60
2023-03-05T00:37:47.453Z,37.67
2023-03-05T00:39:50.231Z,43.88
2023-03-05T00:41:53.236Z,39.67
2023-03-05T00:43:56.279Z,40.30
2023-03-05T00:46:00.462Z,38.72
2023-03-05T00:48:04.205Z,38.83
2023-03-05T00:50:08.621Z,39.08
2023-03-05T00:52:11.363Z,43.08
2023-03-05T00:54:14.211Z,38.42
2023-03-05T00:56:17.014Z,49.65
2023-03-05T00:58:19.829Z,43.17
2023-03-05T01:00:22.906Z,42.28
2023-03-05T01:02:27.072Z,42.85
2023-03-05T01:04:29.844Z,43.22
2023-03-05T01:06:32.844Z,42.22
2023-03-05T01:08:35.889Z,40.17
2023-03-05T01:10:38.951Z,35.88
2023-03-05T01:12:41.747Z,40.50
2023-03-05T01:14:44.496Z,43.38
2023-03-05T01:16:47.535Z,40.05
2023-03-05T01:18:51.743Z,41.95
2023-03-05T01:20:54.544Z,40.42
2023-03-05T01:22:58.928Z,39.53
2023-03-05T01:25:01.944Z,34.13
2023-03-05T01:27:04.956Z,40.05
2023-03-05T01:29:07.782Z,38.97
2023-03-05T01:31:10.890Z,36.50
2023-03-05T01:33:14.497Z,38.35
2023-03-05T01:35:22.563Z,35.80
2023-03-05T01:37:26.356Z,40.97
2023-03-05T01:39:29.317Z,38.88
2023-03-05T01:41:33.847Z,40.10
2023-03-05T01:43:37.171Z,41.83
2023-03-05T01:45:41.224Z,44.65
2023-03-05T01:47:44.763Z,41.58
2023-03-05T01:49:47.726Z,39.88
2023-03-05T01:51:59.730Z,38.45
2023-03-05T01:54:03.985Z,38.90
2023-03-05T01:56:07.409Z,40.85
2023-03-05T01:58:14.210Z,41.45
2023-03-05T02:00:19.848Z,41.67
2023-03-05T02:02:23.041Z,43.08
2023-03-05T02:04:33.344Z,37.40
2023-03-05T02:06:36.508Z,39.55
2023-03-05T02:08:40.771Z,40.80
2023-03-05T02:10:45.222Z,40.15
2023-03-05T02:12:50.056Z,39.95
2023-03-05T02:14:59.251Z,36.80
2023-03-05T02:17:02.450Z,40.00
2023-03-05T02:19:06.494Z,38.90
2023-03-05T02:21:11.209Z,40.53
2023-03-05T02:23:14.440Z,39.88
2023-03-05T02:25:20.173Z,38.42
2023-03-05T02:27:34.685Z,36.53
2023-03-05T02:29:41.849Z,40.47
2023-03-05T02:31:44.799Z,34.58
2023-03-05T02:33:49.777Z,38.13
2023-03-05T02:35:54.547Z,43.17
2023-03-05T02:37:58.790Z,36.90
2023-03-05T02:40:01.945Z,41.10
2023-03-05T02:42:05.466Z,40.28
2023-03-05T02:44:08.491Z,42.00
2023-03-05T02:46:11.830Z,43.65
2023-03-05T02:48:15.261Z,37.58
2023-03-05T02:50:18.664Z,37.67
2023-03-05T02:52:23.182Z,40.55
2023-03-05T02:54:28.725Z,38.40
2023-03-05T02:56:31.781Z,38.30
2023-03-05T02:58:36.625Z,37.75
2023-03-05T03:00:39.449Z,43.55
2023-03-05T03:02:42.302Z,40.20
2023-03-05T03:04:45.377Z,36.70
2023-03-05T03:06:48.179Z,42.33
2023-03-05T03:08:50.946Z,36.22
2023-03-05T03:10:56.678Z,35.50
2023-03-05T03:12:59.383Z,38.40
2023-03-05T03:15:02.185Z,36.63
2023-03-05T03:17:05.013Z,36.20
2023-03-05T03:19:07.826Z,35.70
2023-03-05T03:21:17.155Z,35.97
2023-03-05T03:23:19.915Z,37.72
2023-03-05T03:25:24.107Z,36.95
2023-03-05T03:27:29.741Z,37.90
2023-03-05T03:29:32.592Z,34.65
2023-03-05T03:31:35.417Z,33.85
2023-03-05T03:33:38.185Z,35.75
2023-03-05T03:35:41.057Z,33.60
2023-03-05T03:37:43.867Z,40.50
2023-03-05T03:39:46.653Z,34.67
2023-03-05T03:41:53.222Z,39.58
2023-03-05T03:43:57.378Z,38.50
2023-03-05T03:46:00.180Z,41.90
2023-03-05T03:48:02.995Z,43.15
2023-03-05T03:50:06.679Z,42.33
2023-03-05T03:52:09.758Z,39.85
2023-03-05T03:54:12.593Z,54.50
2023-03-05T03:56:15.599Z,51.75
2023-03-05T03:58:18.334Z,74.50
2023-03-05T04:00:23.098Z,80.03
2023-03-05T04:02:26.317Z,44.85
2023-03-05T04:04:30.270Z,39.65
2023-03-05T04:06:33.713Z,38.35
2023-03-05T04:08:36.547Z,31.58
2023-03-05T04:10:39.772Z,37.45
2023-03-05T04:12:43.516Z,36.60
2023-03-05T04:14:46.888Z,34.10
2023-03-05T04:16:50.980Z,38.22
2023-03-05T04:18:53.820Z,34.80
2023-03-05T04:20:56.601Z,38.60
2023-03-05T04:22:59.390Z,37.28
2023-03-05T04:25:03.733Z,42.38
2023-03-05T04:27:06.934Z,32.45
2023-03-05T04:29:09.718Z,36.05
2023-03-05T04:31:12.577Z,35.38
2023-03-05T04:33:17.204Z,36.13
2023-03-05T04:35:20.155Z,33.90
2023-03-05T04:37:22.994Z,36.10
2023-03-05T04:39:25.927Z,36.42
2023-03-05T04:41:28.637Z,36.63
2023-03-05T04:43:31.468Z,36.58
2023-03-05T04:45:34.817Z,34.70
2023-03-05T04:47:38.349Z,35.00
2023-03-05T04:49:42.771Z,37.22
2023-03-05T04:51:45.544Z,31.15
2023-03-05T04:53:48.332Z,33.28
2023-03-05T04:55:53.870Z,36.10
2023-03-05T04:57:56.678Z,31.50
2023-03-05T04:59:59.768Z,33.40
2023-03-05T05:02:02.643Z,32.55
2023-03-05T05:04:05.420Z,34.97
2023-03-05T05:06:09.534Z,34.17
2023-03-05T05:08:12.313Z,37.53
2023-03-05T05:10:16.415Z,36.78
2023-03-05T05:12:19.163Z,32.50
2023-03-05T05:14:22.004Z,33.70
2023-03-05T05:16:24.730Z,35.38
2023-03-05T05:18:27.861Z,32.55
2023-03-05T05:20:30.866Z,33.90
2023-03-05T05:22:35.623Z,34.33
2023-03-05T05:24:38.309Z,31.33
2023-03-05T05:26:41.048Z,34.30
2023-03-05T05:28:44.441Z,31.23
2023-03-05T05:30:47.184Z,32.08
2023-03-05T05:32:49.883Z,35.90
2023-03-05T05:34:55.551Z,36.67
2023-03-05T05:36:58.289Z,31.25
2023-03-05T05:39:02.333Z,36.05
2023-03-05T05:41:05.869Z,42.00
2023-03-05T05:43:08.594Z,36.60
2023-03-05T05:45:12.702Z,45.60
2023-03-05T05:47:16.601Z,37.67
2023-03-05T05:49:19.348Z,31.50
2023-03-05T05:51:24.054Z,32.38
2023-03-05T05:53:27.558Z,31.63
2023-03-05T05:55:31.639Z,32.63
2023-03-05T05:57:35.258Z,28.42
2023-03-05T05:59:38.249Z,32.30
2023-03-05T06:01:40.997Z,32.70
2023-03-05T06:03:43.825Z,34.17
2023-03-05T06:05:47.592Z,33.53
2023-03-05T06:07:50.320Z,45.00
2023-03-05T06:09:53.101Z,62.25
2023-03-05T06:11:57.224Z,42.38
2023-03-05T06:14:00.114Z,32.72
2023-03-05T06:16:05.202Z,31.83
2023-03-05T06:18:08.007Z,31.08
2023-03-05T06:20:12.076Z,29.00
2023-03-05T06:22:14.854Z,30.63
2023-03-05T06:24:19.262Z,32.45
2023-03-05T06:26:23.608Z,29.50
2023-03-05T06:28:27.870Z,29.95
2023-03-05T06:30:30.644Z,33.45
2023-03-05T06:32:33.471Z,31.52
2023-03-05T06:34:36.606Z,35.10
2023-03-05T06:36:40.392Z,33.85
2023-03-05T06:38:43.203Z,34.45
2023-03-05T06:40:46.149Z,80.68
2023-03-05T06:42:49.057Z,56.05
2023-03-05T06:44:53.181Z,54.97
2023-03-05T06:46:55.960Z,72.03
2023-03-05T06:49:00.847Z,35.53
2023-03-05T06:51:03.663Z,94.57
2023-03-05T06:53:06.462Z,86.70
2023-03-05T06:55:10.456Z,95.40
2023-03-05T06:57:13.748Z,92.90
2023-03-05T06:59:17.820Z,64.88
2023-03-05T07:01:23.607Z,47.20
2023-03-05T07:03:26.462Z,37.53
2023-03-05T07:05:29.297Z,36.33
2023-03-05T07:07:32.974Z,32.75
2023-03-05T07:09:35.691Z,28.80
2023-03-05T07:11:38.438Z,28.25
2023-03-05T07:13:41.751Z,32.40
2023-03-05T07:15:44.664Z,42.08
2023-03-05T07:17:48.806Z,41.35
2023-03-05T07:19:51.550Z,41.10
2023-03-05T07:21:54.352Z,37.92
2023-03-05T07:23:58.667Z,32.40
2023-03-05T07:26:02.595Z,31.85
2023-03-05T07:28:06.409Z,36.90
2023-03-05T07:30:10.544Z,40.92
2023-03-05T07:32:13.355Z,33.50
2023-03-05T07:34:17.546Z,29.40
2023-03-05T07:36:20.762Z,32.85
2023-03-05T07:38:23.650Z,30.30
2023-03-05T07:40:26.369Z,26.55
2023-03-05T07:42:29.196Z,26.98
2023-03-05T07:44:44.780Z,30.60
2023-03-05T07:46:47.605Z,33.10
2023-03-05T07:48:50.417Z,29.00
2023-03-05T07:51:02.673Z,27.33
2023-03-05T07:53:05.581Z,31.83
2023-03-05T07:55:09.071Z,29.52
2023-03-05T07:57:13.312Z,29.40
2023-03-05T07:59:16.084Z,28.27
2023-03-05T08:01:19.089Z,27.70
2023-03-05T08:03:21.891Z,28.98
2023-03-05T08:05:24.667Z,28.52
2023-03-05T08:07:28.804Z,24.55
2023-03-05T08:09:31.739Z,26.02
2023-03-05T08:11:34.517Z,31.17
2023-03-05T08:13:37.950Z,29.83
2023-03-05T08:15:40.769Z,28.88
2023-03-05T08:17:43.517Z,30.30
2023-03-05T08:19:46.533Z,27.42
2023-03-05T08:21:49.291Z,29.05
2023-03-05T08:23:53.427Z,29.20
2023-03-05T08:25:56.226Z,30.45
2023-03-05T08:27:59.000Z,31.08
2023-03-05T08:30:02.286Z,30.05
2023-03-05T08:32:05.787Z,30.00
2023-03-05T08:34:08.616Z,28.13
2023-03-05T08:36:11.707Z,28.67
2023-03-05T08:38:14.576Z,27.65
2023-03-05T08:40:19.372Z,26.15
2023-03-05T08:42:22.070Z,25.58
2023-03-05T08:44:24.839Z,26.73
2023-03-05T08:46:27.649Z,24.55
2023-03-05T08:48:32.628Z,25.55
2023-03-05T08:50:38.865Z,26.27
2023-03-05T08:52:42.004Z,28.90
2023-03-05T08:54:44.722Z,24.42
2023-03-05T08:56:50.060Z,27.25
2023-03-05T08:58:53.052Z,22.65
2023-03-05T09:00:56.363Z,24.42
2023-03-05T09:02:59.109Z,39.60
2023-03-05T09:05:01.866Z,33.17
2023-03-05T09:07:04.648Z,24.90
2023-03-05T09:09:07.664Z,23.67
2023-03-05T09:11:13.694Z,25.67
2023-03-05T09:13:17.799Z,22.63
2023-03-05T09:15:20.674Z,26.30
2023-03-05T09:17:23.638Z,27.27
2023-03-05T09:19:27.474Z,24.02
2023-03-05T09:21:30.249Z,24.25
2023-03-05T09:23:32.993Z,22.88
2023-03-05T09:25:35.940Z,24.60
2023-03-05T09:27:39.529Z,21.58
2023-03-05T09:29:43.598Z,20.23
2023-03-05T09:31:48.566Z,19.15
2023-03-05T09:33:51.468Z,25.00
2023-03-05T09:35:54.330Z,21.05
2023-03-05T09:37:57.463Z,22.42
2023-03-05T09:40:00.263Z,20.20
2023-03-05T09:42:27.263Z,19.85
2023-03-05T09:44:38.943Z,20.05
2023-03-05T09:46:52.868Z,20.67
2023-03-05T09:49:01.805Z,19.40
2023-03-05T09:51:06.045Z,18.38
2023-03-05T09:53:26.325Z,18.08
2023-03-05T09:55:35.219Z,16.70
2023-03-05T09:57:43.911Z,18.17
2023-03-05T09:59:51.429Z,21.42
2023-03-05T10:01:58.925Z,21.45
2023-03-05T10:04:10.135Z,22.30
2023-03-05T10:06:18.285Z,17.63
2023-03-05T10:08:28.450Z,21.90
2023-03-05T10:10:40.668Z,20.02
2023-03-05T10:12:45.558Z,18.58
2023-03-05T10:14:50.286Z,18.80
2023-03-05T10:17:38.623Z,16.10
2023-03-05T10:20:18.282Z,16.90
2023-03-05T10:22:24.197Z,18.63
2023-03-05T10:24:37.874Z,15.75
2023-03-05T10:26:58.594Z,18.33
2023-03-05T10:29:19.599Z,18.58
2023-03-05T10:31:39.969Z,16.90
2023-03-05T10:33:57.316Z,18.65
2023-03-05T10:36:28.178Z,20.38
2023-03-05T10:38:52.269Z,20.08
2023-03-05T10:40:56.915Z,20.02
2023-03-05T10:43:08.315Z,18.85
2023-03-05T10:45:16.914Z,17.55
2023-03-05T10:47:26.581Z,18.60
2023-03-05T10:49:35.484Z,22.52
2023-03-05T10:51:42.258Z,19.70
2023-03-05T10:53:54.733Z,20.00
2023-03-05T10:55:57.677Z,21.95
2023-03-05T10:58:01.989Z,20.20
2023-03-05T11:00:19.793Z,19.52
2023-03-05T11:02:23.925Z,20.95
2023-03-05T11:04:29.136Z,17.55
2023-03-05T11:06:36.537Z,20.90
2023-03-05T11:08:40.133Z,16.90
2023-03-05T11:10:42.921Z,18.92
2023-03-05T11:12:46.392Z,20.38
2023-03-05T11:15:05.660Z,18.92
2023-03-05T11:17:29.410Z,18.52
2023-03-05T11:19:33.140Z,18.08
2023-03-05T11:21:40.416Z,18.55
2023-03-05T11:23:43.441Z,19.50
2023-03-05T11:25:58.932Z,17.83
2023-03-05T11:28:03.971Z,18.63
2023-03-05T11:30:21.821Z,18.63
2023-03-05T11:32:27.122Z,17.05
2023-03-05T11:34:35.468Z,18.02
2023-03-05T11:36:40.987Z,18.23
2023-03-05T11:38:51.097Z,19.55
2023-03-05T11:40:56.498Z,16.92
2023-03-05T11:43:02.786Z,18.48
2023-03-05T11:45:07.585Z,17.58
2023-03-05T11:47:21.753Z,20.95
2023-03-05T11:49:27.734Z,21.08
2023-03-05T11:51:38.226Z,19.40
2023-03-05T11:53:45.568Z,17.88
2023-03-05T11:55:52.109Z,16.55
2023-03-05T11:58:05.267Z,21.17
2023-03-05T12:00:14.148Z,15.63
2023-03-05T12:02:20.055Z,15.68
2023-03-05T12:04:23.531Z,17.08
2023-03-05T12:06:34.214Z,15.52
2023-03-05T12:08:42.034Z,15.43
2023-03-05T12:10:46.649Z,14.77
2023-03-05T12:12:58.682Z,15.27
2023-03-05T12:15:19.835Z,15.60
2023-03-05T12:17:28.320Z,16.48
2023-03-05T12:19:41.287Z,15.95
2023-03-05T12:21:45.709Z,13.50
2023-03-05T12:23:51.229Z,22.25
2023-03-05T12:25:57.859Z,22.40
2023-03-05T12:28:00.969Z,23.30
2023-03-05T12:30:05.316Z,15.23
2023-03-05T12:32:58.221Z,15.77
2023-03-05T12:35:04.287Z,15.43
2023-03-05T12:37:12.419Z,14.75
2023-03-05T12:39:43.923Z,21.30
2023-03-05T12:41:48.142Z,17.92
2023-03-05T12:44:11.009Z,16.30
2023-03-05T12:46:33.002Z,17.63
2023-03-05T12:48:44.757Z,15.43
2023-03-05T12:50:52.758Z,16.80
2023-03-05T12:52:56.425Z,16.83
2023-03-05T12:55:13.846Z,16.23
2023-03-05T12:57:20.850Z,17.30
2023-03-05T12:59:29.947Z,25.15
2023-03-05T13:01:40.802Z,14.73
2023-03-05T13:03:49.087Z,17.35
2023-03-05T13:05:53.737Z,19.88
2023-03-05T13:08:12.534Z,21.33
2023-03-05T13:10:24.833Z,28.45
2023-03-05T13:12:31.071Z,24.75
2023-03-05T13:14:37.577Z,28.35
2023-03-05T13:16:41.035Z,25.75
2023-03-05T13:18:48.154Z,24.13
2023-03-05T13:21:02.438Z,23.55
2023-03-05T13:23:14.061Z,25.63
2023-03-05T13:25:20.571Z,25.05
2023-03-05T13:27:28.830Z,22.83
2023-03-05T13:29:33.022Z,20.63
2023-03-05T13:31:37.227Z,20.23
2023-03-05T13:33:40.106Z,20.70
2023-03-05T13:35:46.523Z,21.63
2023-03-05T13:37:50.105Z,18.42
2023-03-05T13:39:56.525Z,18.67
2023-03-05T13:42:01.857Z,20.10
2023-03-05T13:44:04.666Z,18.30
2023-03-05T13:46:09.125Z,20.48
2023-03-05T13:48:20.405Z,20.92
2023-03-05T13:50:26.035Z,23.10
2023-03-05T13:52:30.781Z,19.17
2023-03-05T13:54:33.639Z,20.63
2023-03-05T13:56:36.553Z,18.02
2023-03-05T13:58:52.267Z,17.45
2023-03-05T14:01:04.022Z,19.55
2023-03-05T14:03:16.069Z,20.02
2023-03-05T14:05:19.940Z,23.10
2023-03-05T14:07:30.803Z,21.00
2023-03-05T14:09:47.220Z,17.85
2023-03-05T14:11:58.696Z,19.70
2023-03-05T14:14:09.093Z,20.48
2023-03-05T14:16:14.907Z,19.85
2023-03-05T14:18:21.157Z,17.15
2023-03-05T14:20:27.424Z,20.30
2023-03-05T14:22:32.815Z,22.65
2023-03-05T14:24:35.567Z,20.73
2023-03-05T14:26:41.769Z,21.42
2023-03-05T14:28:44.678Z,18.55
2023-03-05T14:30:48.160Z,21.15
2023-03-05T14:32:53.281Z,19.48
2023-03-05T14:34:59.482Z,24.23
2023-03-05T14:37:05.308Z,21.67
2023-03-05T14:39:08.594Z,22.13
2023-03-05T14:41:23.593Z,23.08
2023-03-05T14:43:26.369Z,28.83
2023-03-05T14:45:30.591Z,27.45
2023-03-05T14:47:33.409Z,30.63
2023-03-05T14:49:36.168Z,22.17
2023-03-05T14:51:43.479Z,26.95
2023-03-05T14:53:48.652Z,22.83
2023-03-05T14:55:56.687Z,21.60
2023-03-05T14:58:05.217Z,30.58
2023-03-05T15:00:16.093Z,24.80
2023-03-05T15:02:20.859Z,20.67
2023-03-05T15:04:23.695Z,20.33
2023-03-05T15:06:33.200Z,22.30
2023-03-05T15:08:37.358Z,21.23
2023-03-05T15:10:40.145Z,21.42
2023-03-05T15:12:44.174Z,19.48
2023-03-05T15:14:46.935Z,15.43
2023-03-05T15:16:49.713Z,19.13
2023-03-05T15:18:52.481Z,17.90
2023-03-05T15:20:56.886Z,17.52
2023-03-05T15:22:59.817Z,25.13
2023-03-05T15:25:04.546Z,20.33
2023-03-05T15:27:07.791Z,9.23
2023-03-05T15:29:10.532Z,12.13
2023-03-05T15:31:13.362Z,12.32
2023-03-05T15:33:17.690Z,8.18
2023-03-05T15:35:20.736Z,8.63
2023-03-05T15:37:23.732Z,10.38
2023-03-05T15:39:26.615Z,7.78
2023-03-05T15:41:30.916Z,8.93
2023-03-05T15:43:33.677Z,19.23
2023-03-05T15:45:36.475Z,22.33
2023-03-05T15:47:39.235Z,12.18
2023-03-05T15:49:41.950Z,23.77
2023-03-05T15:51:45.896Z,21.63
2023-03-05T15:53:48.698Z,20.55
2023-03-05T15:55:51.540Z,21.67
2023-03-05T15:57:55.644Z,18.52
2023-03-05T15:59:58.388Z,19.88
2023-03-05T16:02:01.737Z,14.88
2023-03-05T16:04:04.611Z,11.80
2023-03-05T16:06:08.369Z,9.75
2023-03-05T16:08:11.189Z,10.43
2023-03-05T16:10:17.628Z,10.15
2023-03-05T16:12:25.212Z,9.18
2023-03-05T16:14:30.134Z,10.77
2023-03-05T16:16:35.067Z,10.70
2023-03-05T16:18:42.831Z,10.80
2023-03-05T16:20:46.172Z,11.05
2023-03-05T16:22:49.377Z,10.13
2023-03-05T16:24:52.084Z,12.02
2023-03-05T16:26:55.137Z,11.50
2023-03-05T16:28:57.887Z,12.38
2023-03-05T16:31:02.055Z,12.93
2023-03-05T16:33:05.114Z,10.25
2023-03-05T16:35:08.629Z,10.45
2023-03-05T16:37:11.852Z,15.00
2023-03-05T16:39:14.736Z,9.52
2023-03-05T16:41:18.761Z,15.18
2023-03-05T16:43:21.500Z,11.23
2023-03-05T16:45:24.239Z,12.60
2023-03-05T16:47:28.651Z,13.55
2023-03-05T16:49:32.708Z,13.27
2023-03-05T16:51:35.891Z,10.57
2023-03-05T16:53:39.433Z,13.80
2023-03-05T16:55:42.169Z,9.48
2023-03-05T16:57:44.934Z,11.65
2023-03-05T16:59:47.626Z,12.30
2023-03-05T17:01:50.440Z,12.23
2023-03-05T17:03:54.570Z,12.60
2023-03-05T17:05:57.302Z,10.18
2023-03-05T17:08:02.130Z,11.18
2023-03-05T17:10:05.358Z,11.13
2023-03-05T17:12:08.632Z,10.02
2023-03-05T17:14:11.390Z,9.75
2023-03-05T17:16:16.236Z,11.95
2023-03-05T17:18:21.295Z,10.07
2023-03-05T17:20:25.415Z,9.85
2023-03-05T17:22:28.326Z,9.48
2023-03-05T17:24:32.914Z,15.35
2023-03-05T17:26:36.567Z,15.48
2023-03-05T17:28:39.646Z,15.00
2023-03-05T17:30:42.387Z,12.25
2023-03-05T17:32:45.166Z,11.88
2023-03-05T17:34:47.942Z,10.95
2023-03-05T17:36:51.984Z,17.23
2023-03-05T17:38:55.048Z,18.05
2023-03-05T17:40:57.972Z,16.48
2023-03-05T17:43:00.995Z,17.60
2023-03-05T17:45:04.754Z,17.98
2023-03-05T17:47:07.498Z,14.65
2023-03-05T17:49:10.200Z,13.57
2023-03-05T17:51:16.595Z,12.00
2023-03-05T17:53:20.748Z,11.50
2023-03-05T17:55:24.864Z,15.32
2023-03-05T17:57:27.759Z,11.32
2023-03-05T17:59:30.545Z,10.27
2023-03-05T18:01:35.445Z,13.02
2023-03-05T18:03:38.739Z,10.25
2023-03-05T18:05:41.964Z,15.18
2023-03-05T18:07:44.868Z,10.63
2023-03-05T18:09:48.979Z,12.82
2023-03-05T18:11:51.758Z,15.52
2023-03-05T18:13:54.531Z,11.48
2023-03-05T18:15:59.850Z,14.20
2023-03-05T18:18:03.038Z,13.48
2023-03-05T18:20:07.288Z,14.40
2023-03-05T18:22:10.131Z,13.52
2023-03-05T18:24:12.962Z,12.30
2023-03-05T18:26:17.096Z,11.85
2023-03-05T18:28:19.882Z,11.75
2023-03-05T18:30:22.687Z,11.77
2023-03-05T18:32:25.658Z,11.73
2023-03-05T18:34:29.534Z,11.55
2023-03-05T18:36:32.331Z,10.10
2023-03-05T18:38:35.553Z,11.23
2023-03-05T18:40:40.592Z,11.13
2023-03-05T18:42:44.704Z,10.80
2023-03-05T18:44:47.499Z,10.25
2023-03-05T18:46:50.276Z,10.93
2023-03-05T18:48:53.102Z,11.40
2023-03-05T18:50:55.912Z,10.65
2023-03-05T18:52:58.753Z,10.95
2023-03-05T18:55:02.071Z,10.52
2023-03-05T18:57:04.982Z,11.80
2023-03-05T18:59:09.102Z,9.45
2023-03-05T19:01:11.933Z,13.90
2023-03-05T19:03:15.218Z,9.63
2023-03-05T19:05:18.900Z,11.80
2023-03-05T19:07:21.694Z,11.43
2023-03-05T19:09:42.004Z,8.23
2023-03-05T19:11:44.890Z,9.68
2023-03-05T19:13:50.272Z,10.35
2023-03-05T19:15:54.510Z,10.75
2023-03-05T19:17:57.332Z,8.35
2023-03-05T19:20:00.513Z,9.75
2023-03-05T19:22:03.340Z,10.02
2023-03-05T19:24:06.817Z,13.10
2023-03-05T19:26:09.629Z,10.70
2023-03-05T19:28:12.338Z,10.77
2023-03-05T19:30:16.269Z,11.13
2023-03-05T19:32:21.793Z,11.98
2023-03-05T19:34:24.611Z,10.32
2023-03-05T19:36:27.366Z,11.77
2023-03-05T19:38:30.076Z,9.70
2023-03-05T19:40:32.830Z,11.02
2023-03-05T19:42:38.015Z,12.10
2023-03-05T19:44:40.833Z,10.90
2023-03-05T19:46:43.757Z,11.05
2023-03-05T19:48:47.864Z,13.35
2023-03-05T19:50:50.603Z,15.80
2023-03-05T19:52:53.382Z,13.05
2023-03-05T19:54:56.370Z,17.63
2023-03-05T19:57:00.006Z,12.75
2023-03-05T19:59:02.797Z,11.98
2023-03-05T20:01:10.133Z,11.02
2023-03-05T20:03:13.299Z,10.93
2023-03-05T20:05:17.378Z,10.25
2023-03-05T20:07:20.125Z,19.27
2023-03-05T20:09:23.073Z,14.32
2023-03-05T20:11:27.037Z,9.63
2023-03-05T20:13:31.385Z,10.32
2023-03-05T20:15:34.102Z,10.48
2023-03-05T20:17:36.826Z,12.13
2023-03-05T20:19:39.609Z,17.83
2023-03-05T20:21:44.576Z,15.63
2023-03-05T20:23:47.608Z,11.07
2023-03-05T20:25:50.306Z,10.07
2023-03-05T20:27:53.484Z,8.43
2023-03-05T20:29:56.204Z,8.63
2023-03-05T20:31:59.042Z,7.88
2023-03-05T20:34:01.804Z,8.55
2023-03-05T20:36:04.756Z,8.27
2023-03-05T20:38:20.684Z,8.73
2023-03-05T20:40:23.548Z,8.02
2023-03-05T20:42:26.351Z,6.80
2023-03-05T20:44:29.054Z,8.55
2023-03-05T20:46:33.978Z,8.32
2023-03-05T20:48:36.834Z,8.85
2023-03-05T20:50:40.960Z,7.63
2023-03-05T20:52:43.737Z,11.20
2023-03-05T20:54:48.170Z,7.80
2023-03-05T20:56:50.927Z,9.75
2023-03-05T20:58:53.639Z,10.27
2023-03-05T21:00:56.512Z,13.75
2023-03-05T21:02:59.489Z,16.23
2023-03-05T21:05:02.244Z,23.13
2023-03-05T21:07:05.097Z,26.85
2023-03-05T21:09:07.807Z,30.38
2023-03-05T21:11:12.445Z,30.45
2023-03-05T21:13:15.241Z,23.58
2023-03-05T21:15:19.915Z,16.83
2023-03-05T21:17:22.678Z,15.02
2023-03-05T21:19:25.420Z,14.20
2023-03-05T21:21:28.532Z,14.32
2023-03-05T21:23:31.270Z,14.68
2023-03-05T21:25:34.591Z,12.95
2023-03-05T21:27:38.736Z,11.90
2023-03-05T21:29:41.586Z,11.27
2023-03-05T21:31:44.415Z,12.55
2023-03-05T21:33:47.414Z,11.23
2023-03-05T21:35:52.562Z,15.20
2023-03-05T21:37:55.331Z,10.93
2023-03-05T21:39:58.073Z,13.02
2023-03-05T21:42:00.800Z,10.65
2023-03-05T21:44:05.959Z,14.05
2023-03-05T21:46:09.374Z,13.05
2023-03-05T21:48:12.147Z,12.60
2023-03-05T21:50:16.900Z,13.60
2023-03-05T21:52:19.959Z,12.73
2023-03-05T21:54:24.749Z,13.38
2023-03-05T21:56:30.941Z,10.88
2023-03-05T21:58:35.341Z,10.90
2023-03-05T22:00:39.540Z,11.35
2023-03-05T22:02:42.811Z,12.68
2023-03-05T22:04:45.965Z,10.82
2023-03-05T22:06:48.759Z,10.45
2023-03-05T22:08:51.484Z,11.15
2023-03-05T22:10:54.408Z,8.95
2023-03-05T22:13:06.887Z,8.38
2023-03-05T22:15:10.891Z,13.45
2023-03-05T22:17:15.017Z,13.82
2023-03-05T22:19:17.797Z,15.52
2023-03-05T22:21:23.293Z,10.15
2023-03-05T22:23:29.209Z,8.77
2023-03-05T22:25:31.999Z,10.38
2023-03-05T22:27:34.793Z,11.10
2023-03-05T22:29:37.567Z,9.35
2023-03-05T22:31:40.797Z,10.35
2023-03-05T22:33:44.929Z,9.88
2023-03-05T22:35:47.812Z,10.43
2023-03-05T22:37:50.640Z,10.95
2023-03-05T22:39:55.148Z,9.52
2023-03-05T22:41:57.925Z,10.70
2023-03-05T22:44:00.715Z,9.18
2023-03-05T22:46:10.538Z,10.57
2023-03-05T22:48:13.847Z,12.95
2023-03-05T22:50:18.267Z,11.93
2023-03-05T22:52:21.325Z,17.35
2023-03-05T22:54:24.045Z,15.68
2023-03-05T22:56:26.841Z,13.40
2023-03-05T22:58:29.582Z,13.55
2023-03-05T23:00:32.362Z,12.43
2023-03-05T23:02:35.290Z,14.30
2023-03-05T23:04:48.925Z,13.43
2023-03-05T23:06:53.149Z,13.43
2023-03-05T23:08:56.189Z,10.95
2023-03-05T23:10:59.023Z,11.32
2023-03-05T23:13:02.303Z,12.73
2023-03-05T23:15:07.395Z,12.48
2023-03-05T23:17:10.138Z,9.77
2023-03-05T23:19:12.869Z,9.63
2023-03-05T23:21:15.571Z,12.73
2023-03-05T23:23:19.654Z,11.23
2023-03-05T23:25:25.366Z,10.85
2023-03-05T23:27:28.170Z,12.25
2023-03-05T23:29:37.014Z,11.60
2023-03-05T23:31:39.930Z,10.07
2023-03-05T23:33:42.688Z,9.43
2023-03-05T23:35:51.329Z,9.85
2023-03-05T23:37:55.087Z,10.63
2023-03-05T23:39:59.161Z,12.73
2023-03-05T23:42:01.909Z,10.27
2023-03-05T23:44:05.692Z,10.65
2023-03-05T23:46:11.869Z,8.65
2023-03-05T23:48:15.350Z,11.20
2023-03-05T23:50:20.832Z,9.60
2023-03-05T23:52:23.617Z,11.75
2023-03-05T23:54:26.347Z,11.70
2023-03-05T23:56:31.435Z,11.18
2023-03-05T23:58:36.101Z,10.52
